Time;durP1;ratioP1;P1;durP2;ratioP2;P2;SDS_P1;SDS_P2;PMS_P1;PMS_P2;Temp;Humidity;BMP_temperature;BMP_pressure;BME280_temperature;BME280_humidity;BME280_pressure;Samples;Min_cycle;Max_cycle;Signal;HPM_P1;HPM_P2
2022/07/24 00:00:38;;;;;;;0.20;0.20;;;17.00;99.90;;;;;;4445459;32;20081;-62
2022/07/24 00:03:03;;;;;;;0.47;0.47;;;16.90;99.90;;;;;;4431468;32;20065;-62
2022/07/24 00:05:29;;;;;;;0.98;0.62;;;17.00;99.90;;;;;;4445188;32;20081;-62
2022/07/24 00:07:54;;;;;;;0.90;0.60;;;16.90;99.90;;;;;;4419287;32;20493;-62
2022/07/24 00:10:20;;;;;;;0.30;0.30;;;17.00;99.90;;;;;;4445159;32;20407;-61
2022/07/24 00:12:45;;;;;;;0.30;0.30;;;17.00;99.90;;;;;;4431943;32;20069;-62
2022/07/24 00:15:11;;;;;;;0.37;0.37;;;16.90;99.90;;;;;;4446177;32;20057;-62
2022/07/24 00:17:37;;;;;;;0.55;0.55;;;16.80;99.90;;;;;;4445286;32;20061;-62
2022/07/24 00:20:04;;;;;;;3.58;0.60;;;16.80;99.90;;;;;;4432259;32;20459;-62
2022/07/24 00:22:30;;;;;;;0.20;0.20;;;16.80;99.90;;;;;;4426731;32;20061;-62
2022/07/24 00:24:55;;;;;;;0.77;0.50;;;16.70;99.90;;;;;;4431981;32;20056;-62
2022/07/24 00:27:21;;;;;;;0.80;0.60;;;16.60;99.90;;;;;;4444946;32;20078;-62
2022/07/24 00:29:46;;;;;;;0.70;0.50;;;16.60;99.90;;;;;;4445803;32;20104;-61
2022/07/24 00:32:13;;;;;;;0.20;0.20;;;16.60;99.90;;;;;;4446074;32;20065;-62
2022/07/24 00:34:38;;;;;;;1.65;0.40;;;16.60;99.90;;;;;;4435733;32;20580;-62
2022/07/24 00:37:04;;;;;;;1.17;0.55;;;16.70;99.90;;;;;;4442705;32;20073;-62
2022/07/24 00:39:30;;;;;;;0.40;0.40;;;16.60;99.90;;;;;;4432735;32;20169;-62
2022/07/24 00:41:55;;;;;;;0.90;0.57;;;16.50;99.90;;;;;;4432266;32;20085;-62
2022/07/24 00:44:21;;;;;;;1.65;0.40;;;16.50;99.90;;;;;;4445059;32;20457;-62
2022/07/24 00:46:47;;;;;;;0.32;0.32;;;16.50;99.90;;;;;;4454529;32;20414;-62
2022/07/24 00:49:14;;;;;;;0.50;0.50;;;16.40;99.90;;;;;;4461906;32;20167;-62
2022/07/24 00:51:42;;;;;;;0.88;0.80;;;16.50;99.90;;;;;;4435409;32;20056;-62
2022/07/24 00:54:10;;;;;;;0.47;0.40;;;16.50;99.90;;;;;;4423123;32;20164;-62
2022/07/24 00:56:36;;;;;;;0.30;0.30;;;16.40;99.90;;;;;;4414879;32;20065;-62
2022/07/24 00:59:03;;;;;;;0.40;0.30;;;16.40;99.90;;;;;;4404076;32;20062;-62
2022/07/24 01:01:29;;;;;;;0.55;0.35;;;16.20;99.90;;;;;;4430611;32;20065;-62
2022/07/24 01:03:55;;;;;;;0.30;0.30;;;16.30;99.90;;;;;;4407658;32;20156;-63
2022/07/24 01:06:21;;;;;;;0.43;0.43;;;16.30;99.90;;;;;;4431364;32;20480;-62
2022/07/24 01:08:46;;;;;;;0.30;0.30;;;16.30;99.90;;;;;;4405913;32;20149;-62
2022/07/24 01:11:12;;;;;;;0.77;0.50;;;16.20;99.90;;;;;;4445532;32;20064;-62
2022/07/24 01:13:38;;;;;;;0.47;0.40;;;16.20;99.90;;;;;;4444137;32;20077;-62
2022/07/24 01:16:05;;;;;;;0.30;0.30;;;16.10;99.90;;;;;;4418916;32;20108;-62
2022/07/24 01:18:30;;;;;;;0.98;0.65;;;16.20;99.90;;;;;;4431502;32;20164;-62
2022/07/24 01:20:56;;;;;;;0.20;0.20;;;16.10;99.90;;;;;;4426327;32;20119;-61
2022/07/24 01:23:22;;;;;;;0.40;0.40;;;16.10;99.90;;;;;;4421793;32;20069;-62
2022/07/24 01:25:48;;;;;;;0.30;0.30;;;16.10;99.90;;;;;;4409271;32;20065;-62
2022/07/24 01:28:14;;;;;;;0.30;0.30;;;16.00;99.90;;;;;;4416016;32;20095;-62
2022/07/24 01:30:40;;;;;;;0.30;0.30;;;16.00;99.90;;;;;;4430251;32;20061;-62
2022/07/24 01:33:40;;;;;;;0.22;0.22;;;15.90;99.90;;;;;;4484022;32;90909;-62
2022/07/24 01:36:06;;;;;;;0.30;0.30;;;15.80;99.90;;;;;;4465221;32;20065;-62
2022/07/24 01:38:31;;;;;;;0.30;0.30;;;15.80;99.90;;;;;;4457324;32;20512;-61
2022/07/24 01:40:56;;;;;;;0.30;0.30;;;15.70;99.90;;;;;;4456816;32;20582;-61
2022/07/24 01:43:22;;;;;;;0.20;0.20;;;15.70;99.90;;;;;;4457247;32;20084;-62
2022/07/24 01:45:48;;;;;;;0.22;0.22;;;15.70;99.90;;;;;;4466133;32;20052;-61
2022/07/24 01:48:13;;;;;;;0.30;0.30;;;15.80;99.90;;;;;;4473030;32;20126;-61
2022/07/24 01:50:39;;;;;;;1.25;0.93;;;15.70;99.90;;;;;;4455699;32;20192;-61
2022/07/24 01:53:04;;;;;;;0.37;0.28;;;15.70;99.90;;;;;;4450032;32;20119;-61
2022/07/24 01:55:30;;;;;;;0.20;0.20;;;15.70;99.90;;;;;;4463206;32;20599;-61
2022/07/24 01:57:56;;;;;;;0.40;0.30;;;15.70;99.90;;;;;;4470596;32;20196;-62
2022/07/24 02:00:21;;;;;;;0.30;0.30;;;15.80;99.90;;;;;;4469744;32;20076;-62
2022/07/24 02:02:47;;;;;;;0.20;0.20;;;15.70;99.90;;;;;;4472109;32;20434;-61
2022/07/24 02:05:13;;;;;;;0.20;0.20;;;15.70;99.90;;;;;;4472545;32;20159;-61
2022/07/24 02:07:40;;;;;;;0.50;0.40;;;15.60;99.90;;;;;;4473090;32;20525;-61
2022/07/24 02:10:06;;;;;;;0.37;0.35;;;15.60;99.90;;;;;;4471283;32;20073;-61
2022/07/24 02:12:31;;;;;;;0.57;0.43;;;15.60;99.90;;;;;;4471845;32;20064;-62
2022/07/24 02:14:57;;;;;;;0.20;0.20;;;15.60;99.90;;;;;;4473209;32;20084;-62
2022/07/24 02:17:22;;;;;;;0.30;0.30;;;15.50;99.90;;;;;;4464312;32;20073;-61
2022/07/24 02:19:48;;;;;;;0.30;0.30;;;15.50;99.90;;;;;;4457542;32;20125;-61
2022/07/24 02:22:13;;;;;;;0.25;0.25;;;15.40;99.90;;;;;;4439293;32;20143;-61
2022/07/24 02:24:39;;;;;;;0.32;0.32;;;15.50;99.90;;;;;;4429554;32;20135;-61
2022/07/24 02:27:04;;;;;;;0.62;0.62;;;15.50;99.90;;;;;;4440644;32;20127;-61
2022/07/24 02:29:30;;;;;;;0.30;0.30;;;15.40;99.90;;;;;;4441274;32;20681;-62
2022/07/24 02:31:55;;;;;;;0.47;0.47;;;15.40;99.90;;;;;;4441451;32;20093;-62
2022/07/24 02:34:21;;;;;;;0.50;0.50;;;15.30;99.90;;;;;;4441445;32;20125;-61
2022/07/24 02:36:46;;;;;;;1.40;0.60;;;15.50;99.90;;;;;;4450991;32;20191;-61
2022/07/24 02:39:12;;;;;;;0.20;0.20;;;15.50;99.90;;;;;;4456681;32;20060;-61
2022/07/24 02:41:37;;;;;;;0.30;0.30;;;15.50;99.90;;;;;;4456844;32;20136;-61
2022/07/24 02:44:03;;;;;;;0.80;0.75;;;15.40;99.90;;;;;;4449909;32;20069;-62
2022/07/24 02:46:29;;;;;;;0.30;0.30;;;15.40;99.90;;;;;;4447076;32;20444;-61
2022/07/24 02:48:54;;;;;;;0.40;0.40;;;15.30;99.90;;;;;;4445887;32;20065;-62
2022/07/24 02:51:19;;;;;;;0.40;0.40;;;15.10;99.90;;;;;;4435635;32;20116;-62
2022/07/24 02:53:45;;;;;;;3.42;1.20;;;15.10;99.90;;;;;;4424124;32;20073;-61
2022/07/24 02:56:10;;;;;;;0.22;0.22;;;15.10;99.90;;;;;;4442844;32;20064;-61
2022/07/24 02:58:36;;;;;;;0.32;0.32;;;15.20;99.90;;;;;;4445915;32;20547;-61
2022/07/24 03:01:02;;;;;;;0.30;0.30;;;15.20;99.90;;;;;;4444829;32;20064;-61
2022/07/24 03:03:28;;;;;;;0.30;0.30;;;15.20;99.90;;;;;;4444384;32;20131;-62
2022/07/24 03:05:53;;;;;;;1.48;0.55;;;15.20;99.90;;;;;;4445235;32;20069;-62
2022/07/24 03:08:19;;;;;;;0.28;0.28;;;15.20;99.90;;;;;;4443813;32;20160;-62
2022/07/24 03:10:44;;;;;;;0.20;0.20;;;15.20;99.90;;;;;;4446101;32;20177;-61
2022/07/24 03:13:10;;;;;;;0.50;0.50;;;15.20;99.90;;;;;;4446199;32;20089;-62
2022/07/24 03:15:35;;;;;;;0.30;0.30;;;15.10;99.90;;;;;;4444841;32;20069;-62
2022/07/24 03:18:01;;;;;;;1.65;0.77;;;15.10;99.90;;;;;;4444168;32;20137;-62
2022/07/24 03:20:28;;;;;;;0.32;0.32;;;15.10;99.90;;;;;;4444771;32;20068;-61
2022/07/24 03:22:54;;;;;;;0.40;0.40;;;15.00;99.90;;;;;;4421427;32;20073;-62
2022/07/24 03:25:19;;;;;;;0.32;0.32;;;15.00;99.90;;;;;;4420441;32;20061;-61
2022/07/24 03:27:47;;;;;;;1.95;0.50;;;14.90;99.90;;;;;;4429446;32;20082;-61
2022/07/24 03:30:14;;;;;;;0.20;0.20;;;14.90;99.90;;;;;;4429457;32;20066;-62
2022/07/24 03:32:40;;;;;;;0.30;0.30;;;14.90;99.90;;;;;;4417296;32;20136;-62
2022/07/24 03:35:06;;;;;;;0.45;0.45;;;14.90;99.90;;;;;;4430131;32;20058;-60
2022/07/24 03:37:31;;;;;;;0.40;0.40;;;14.70;99.90;;;;;;4444916;32;20072;-61
2022/07/24 03:39:57;;;;;;;0.30;0.30;;;14.70;99.90;;;;;;4446386;32;20057;-62
2022/07/24 03:42:22;;;;;;;0.40;0.40;;;14.70;99.90;;;;;;4435402;32;20517;-62
2022/07/24 03:44:48;;;;;;;0.20;0.20;;;14.70;99.90;;;;;;4437386;32;20061;-63
2022/07/24 03:47:13;;;;;;;0.40;0.40;;;14.80;99.90;;;;;;4445824;32;20164;-62
2022/07/24 03:49:39;;;;;;;0.20;0.20;;;14.90;99.90;;;;;;4446326;32;20072;-62
2022/07/24 03:52:05;;;;;;;0.40;0.40;;;14.80;99.90;;;;;;4428912;32;20069;-61
2022/07/24 03:54:30;;;;;;;0.30;0.28;;;14.80;99.90;;;;;;4426222;32;20076;-61
2022/07/24 03:56:56;;;;;;;0.30;0.30;;;14.70;99.90;;;;;;4443935;32;20072;-62
2022/07/24 03:59:21;;;;;;;0.20;0.20;;;14.80;99.90;;;;;;4446129;32;20480;-62
2022/07/24 04:01:47;;;;;;;0.30;0.30;;;14.80;99.90;;;;;;4444510;32;20116;-62
2022/07/24 04:04:12;;;;;;;0.60;0.60;;;14.90;99.90;;;;;;4445002;32;20070;-61
2022/07/24 04:06:38;;;;;;;0.40;0.40;;;14.90;99.90;;;;;;4445708;32;20538;-62
2022/07/24 04:09:04;;;;;;;0.40;0.40;;;15.00;99.90;;;;;;4444508;32;20119;-62
2022/07/24 04:11:30;;;;;;;0.40;0.40;;;15.00;99.90;;;;;;4444876;32;20069;-61
2022/07/24 04:13:56;;;;;;;1.45;0.60;;;14.90;99.90;;;;;;4444460;32;20061;-61
2022/07/24 04:16:21;;;;;;;0.30;0.30;;;15.00;99.90;;;;;;4445146;32;20072;-62
2022/07/24 04:18:47;;;;;;;0.35;0.35;;;15.00;99.90;;;;;;4443562;32;20057;-61
2022/07/24 04:21:13;;;;;;;0.30;0.30;;;15.00;99.90;;;;;;4435517;32;20133;-62
2022/07/24 04:23:38;;;;;;;0.30;0.30;;;15.10;99.90;;;;;;4415448;32;20127;-61
2022/07/24 04:26:04;;;;;;;0.52;0.52;;;15.20;99.90;;;;;;4425334;32;20085;-62
2022/07/24 04:28:30;;;;;;;0.20;0.20;;;15.20;99.90;;;;;;4427794;32;20434;-62
2022/07/24 04:30:56;;;;;;;0.30;0.30;;;15.30;99.90;;;;;;4427941;32;20077;-62
2022/07/24 04:33:22;;;;;;;0.22;0.22;;;15.30;99.90;;;;;;4428039;32;20093;-62
2022/07/24 04:35:47;;;;;;;0.30;0.30;;;15.40;99.90;;;;;;4420405;32;20072;-62
2022/07/24 04:38:13;;;;;;;0.40;0.40;;;15.40;99.90;;;;;;4443850;32;20115;-62
2022/07/24 04:40:39;;;;;;;0.30;0.30;;;15.40;99.90;;;;;;4443743;32;20109;-62
2022/07/24 04:43:04;;;;;;;0.20;0.20;;;15.40;99.90;;;;;;4442752;32;20490;-61
2022/07/24 04:45:30;;;;;;;0.30;0.30;;;15.50;99.90;;;;;;4445199;32;20065;-62
2022/07/24 04:47:55;;;;;;;0.20;0.20;;;15.50;99.90;;;;;;4444858;32;20060;-62
2022/07/24 04:50:21;;;;;;;0.20;0.20;;;15.60;99.90;;;;;;4443613;32;20069;-62
2022/07/24 04:52:46;;;;;;;0.22;0.22;;;15.60;99.90;;;;;;4423933;32;20093;-62
2022/07/24 04:55:12;;;;;;;0.32;0.32;;;15.70;99.90;;;;;;4432747;32;20171;-62
2022/07/24 04:57:38;;;;;;;0.37;0.37;;;15.70;99.90;;;;;;4445596;32;20470;-62
2022/07/24 05:00:07;;;;;;;0.30;0.30;;;15.70;99.90;;;;;;4443335;32;20065;-62
2022/07/24 05:02:32;;;;;;;17.80;1.02;;;15.70;99.90;;;;;;4444065;32;20069;-62
2022/07/24 05:04:58;;;;;;;0.20;0.20;;;15.80;99.90;;;;;;4444326;32;20064;-61
2022/07/24 05:07:23;;;;;;;12.05;1.10;;;15.80;99.90;;;;;;4443212;32;20068;-61
2022/07/24 05:09:49;;;;;;;0.45;0.45;;;15.90;99.90;;;;;;4445273;32;20082;-61
2022/07/24 05:12:14;;;;;;;0.30;0.30;;;16.00;99.90;;;;;;4444666;32;20069;-61
2022/07/24 05:14:40;;;;;;;0.35;0.35;;;16.00;99.90;;;;;;4445434;32;20077;-61
2022/07/24 05:17:05;;;;;;;0.20;0.20;;;16.10;99.90;;;;;;4442601;32;20426;-62
2022/07/24 05:19:31;;;;;;;0.20;0.20;;;16.20;99.90;;;;;;4444910;32;20572;-62
2022/07/24 05:21:56;;;;;;;0.30;0.30;;;16.20;99.90;;;;;;4429852;32;20112;-60
2022/07/24 05:24:22;;;;;;;0.20;0.20;;;16.30;99.90;;;;;;4411730;32;20076;-62
2022/07/24 05:26:47;;;;;;;0.37;0.37;;;16.40;99.90;;;;;;4429053;32;20069;-61
2022/07/24 05:29:12;;;;;;;0.30;0.30;;;16.40;99.90;;;;;;4429286;32;20113;-63
2022/07/24 05:31:38;;;;;;;2.08;0.50;;;16.40;99.90;;;;;;4429180;32;20093;-63
2022/07/24 05:34:03;;;;;;;0.20;0.20;;;16.50;99.90;;;;;;4429274;32;20183;-60
2022/07/24 05:36:29;;;;;;;0.20;0.20;;;16.50;99.90;;;;;;4438001;32;20073;-60
2022/07/24 05:38:54;;;;;;;0.47;0.47;;;16.50;99.90;;;;;;4444396;32;20085;-61
2022/07/24 05:41:20;;;;;;;0.50;0.50;;;16.50;99.90;;;;;;4443819;32;20567;-61
2022/07/24 05:43:45;;;;;;;0.30;0.30;;;16.60;99.90;;;;;;4444134;32;20084;-61
2022/07/24 05:46:11;;;;;;;0.30;0.30;;;16.70;99.90;;;;;;4444613;32;20068;-61
2022/07/24 05:48:36;;;;;;;0.32;0.32;;;16.70;99.90;;;;;;4444988;32;20065;-61
2022/07/24 05:51:02;;;;;;;1.48;0.35;;;16.80;99.90;;;;;;4437143;32;20730;-61
2022/07/24 05:53:28;;;;;;;0.47;0.47;;;16.80;99.90;;;;;;4420397;32;20834;-61
2022/07/24 05:55:53;;;;;;;0.30;0.30;;;16.80;99.90;;;;;;4437099;32;20123;-61
2022/07/24 05:58:19;;;;;;;0.95;0.35;;;16.90;99.90;;;;;;4443514;32;20584;-61
2022/07/24 06:00:44;;;;;;;2.35;0.30;;;17.00;99.90;;;;;;4443566;32;20228;-60
2022/07/24 06:03:10;;;;;;;0.65;0.50;;;17.10;99.90;;;;;;4444277;32;20077;-61
2022/07/24 06:05:36;;;;;;;2.28;1.05;;;17.20;99.90;;;;;;4443464;32;20076;-60
2022/07/24 06:08:01;;;;;;;0.20;0.20;;;17.30;99.90;;;;;;4444524;32;20085;-61
2022/07/24 06:10:27;;;;;;;0.20;0.20;;;17.30;99.90;;;;;;4443684;32;20561;-61
2022/07/24 06:12:53;;;;;;;0.22;0.22;;;17.40;99.90;;;;;;4444464;32;20485;-61
2022/07/24 06:15:19;;;;;;;0.28;0.25;;;17.40;99.90;;;;;;4442230;32;20387;-61
2022/07/24 06:17:44;;;;;;;0.30;0.30;;;17.40;99.90;;;;;;4443132;32;20077;-63
2022/07/24 06:20:12;;;;;;;0.20;0.20;;;17.50;99.90;;;;;;4447111;32;20422;-61
2022/07/24 06:22:39;;;;;;;0.28;0.28;;;17.50;99.90;;;;;;4419245;32;20084;-61
2022/07/24 06:25:05;;;;;;;0.20;0.20;;;17.60;99.90;;;;;;4417653;32;20124;-61
2022/07/24 06:27:31;;;;;;;0.20;0.20;;;17.60;99.90;;;;;;4430703;32;20751;-61
2022/07/24 06:29:56;;;;;;;2.42;0.40;;;17.70;99.90;;;;;;4431236;32;20057;-62
2022/07/24 06:32:22;;;;;;;5.28;0.95;;;17.70;99.90;;;;;;4430518;32;20592;-62
2022/07/24 06:34:47;;;;;;;0.30;0.30;;;17.70;99.90;;;;;;4429999;32;20082;-62
2022/07/24 06:37:13;;;;;;;0.30;0.30;;;17.80;99.90;;;;;;4443673;32;20130;-61
2022/07/24 06:39:38;;;;;;;0.30;0.30;;;17.80;99.90;;;;;;4446413;32;20061;-61
2022/07/24 06:42:04;;;;;;;0.20;0.20;;;17.90;99.90;;;;;;4446284;32;20147;-62
2022/07/24 06:44:30;;;;;;;0.20;0.20;;;17.90;99.90;;;;;;4446834;32;20072;-62
2022/07/24 06:46:55;;;;;;;0.20;0.20;;;18.00;99.90;;;;;;4445818;32;20070;-62
2022/07/24 06:49:21;;;;;;;0.40;0.40;;;18.00;99.90;;;;;;4446297;32;20064;-62
2022/07/24 06:51:47;;;;;;;0.20;0.20;;;18.20;99.90;;;;;;4432901;32;20116;-62
2022/07/24 06:54:13;;;;;;;2.62;0.55;;;18.30;99.90;;;;;;4424983;32;20106;-60
2022/07/24 06:56:38;;;;;;;2.40;0.60;;;18.40;99.90;;;;;;4445220;32;20092;-62
2022/07/24 06:59:04;;;;;;;0.28;0.28;;;18.40;99.90;;;;;;4446658;32;20061;-62
2022/07/24 07:01:29;;;;;;;0.30;0.30;;;18.50;99.90;;;;;;4445760;32;20072;-62
2022/07/24 07:03:55;;;;;;;0.30;0.30;;;18.60;99.90;;;;;;4446123;32;20437;-62
2022/07/24 07:06:21;;;;;;;2.92;1.27;;;18.60;99.90;;;;;;4445638;32;20073;-62
2022/07/24 07:08:46;;;;;;;0.25;0.25;;;18.70;99.90;;;;;;4446179;32;20082;-61
2022/07/24 07:11:12;;;;;;;3.55;1.58;;;18.60;99.90;;;;;;4446516;32;20544;-62
2022/07/24 07:13:37;;;;;;;0.20;0.20;;;18.60;99.90;;;;;;4446288;32;20065;-62
2022/07/24 07:16:03;;;;;;;0.28;0.28;;;18.70;99.90;;;;;;4446142;32;20080;-62
2022/07/24 07:18:28;;;;;;;1.30;0.73;;;18.70;99.90;;;;;;4446347;32;20528;-62
2022/07/24 07:20:54;;;;;;;0.20;0.20;;;18.80;99.90;;;;;;4440830;32;20073;-61
2022/07/24 07:23:21;;;;;;;0.28;0.28;;;18.90;99.90;;;;;;4424978;32;20507;-61
2022/07/24 07:25:47;;;;;;;0.30;0.30;;;18.90;99.90;;;;;;4436722;32;20084;-62
2022/07/24 07:28:12;;;;;;;0.30;0.30;;;18.90;99.90;;;;;;4446124;32;20513;-62
2022/07/24 07:30:38;;;;;;;0.20;0.20;;;19.10;99.90;;;;;;4446163;32;20069;-61
2022/07/24 07:33:03;;;;;;;0.30;0.30;;;19.10;99.90;;;;;;4445742;32;20439;-61
2022/07/24 07:35:29;;;;;;;0.30;0.30;;;19.30;99.90;;;;;;4443114;32;20074;-61
2022/07/24 07:37:55;;;;;;;0.20;0.20;;;19.50;99.90;;;;;;4430107;32;20509;-62
2022/07/24 07:40:20;;;;;;;0.30;0.30;;;19.50;99.90;;;;;;4430391;32;20120;-62
2022/07/24 07:42:46;;;;;;;0.30;0.30;;;19.60;99.90;;;;;;4442141;32;20228;-62
2022/07/24 07:45:12;;;;;;;0.20;0.20;;;19.80;99.90;;;;;;4435472;32;20069;-62
2022/07/24 07:47:37;;;;;;;0.20;0.20;;;19.90;99.90;;;;;;4444869;32;20078;-62
2022/07/24 07:50:03;;;;;;;2.75;0.32;;;20.00;99.90;;;;;;4444906;32;20064;-62
2022/07/24 07:52:29;;;;;;;0.30;0.30;;;20.00;99.90;;;;;;4425906;32;20435;-62
2022/07/24 07:54:55;;;;;;;0.10;0.10;;;20.20;99.90;;;;;;4431337;32;20065;-62
2022/07/24 07:57:20;;;;;;;0.20;0.20;;;20.20;99.90;;;;;;4444888;32;20061;-62
2022/07/24 07:59:46;;;;;;;0.20;0.20;;;20.30;99.90;;;;;;4445702;32;20167;-62
2022/07/24 08:02:11;;;;;;;3.25;0.50;;;20.30;99.90;;;;;;4445003;32;20111;-61
2022/07/24 08:04:37;;;;;;;0.20;0.20;;;20.30;99.90;;;;;;4445589;32;20135;-62
2022/07/24 08:07:02;;;;;;;0.35;0.25;;;20.30;99.90;;;;;;4443759;32;20469;-62
2022/07/24 08:09:28;;;;;;;0.20;0.20;;;20.40;99.90;;;;;;4446170;32;20068;-62
2022/07/24 08:11:54;;;;;;;0.22;0.22;;;20.50;99.90;;;;;;4445418;32;20073;-62
2022/07/24 08:14:19;;;;;;;0.15;0.15;;;20.60;99.90;;;;;;4445936;32;20088;-64
2022/07/24 08:16:44;;;;;;;0.62;0.25;;;20.70;99.90;;;;;;4445003;32;20077;-63
2022/07/24 08:19:10;;;;;;;0.22;0.22;;;20.80;99.90;;;;;;4445275;32;20524;-62
2022/07/24 08:21:35;;;;;;;0.17;0.17;;;20.70;99.90;;;;;;4433955;32;20057;-61
2022/07/24 08:24:01;;;;;;;0.25;0.25;;;21.00;99.90;;;;;;4409951;32;20073;-61
2022/07/24 08:26:30;;;;;;;0.20;0.20;;;21.00;99.90;;;;;;4427311;32;20086;-62
2022/07/24 08:28:57;;;;;;;0.20;0.20;;;21.20;99.90;;;;;;4429471;32;20077;-61
2022/07/24 08:31:24;;;;;;;0.30;0.30;;;21.20;99.90;;;;;;4429494;32;20124;-60
2022/07/24 08:33:49;;;;;;;0.20;0.20;;;21.30;99.90;;;;;;4429315;32;20077;-62
2022/07/24 08:36:15;;;;;;;0.30;0.30;;;21.30;99.90;;;;;;4435929;32;20396;-62
2022/07/24 08:38:40;;;;;;;0.20;0.20;;;21.50;99.90;;;;;;4444342;32;20107;-62
2022/07/24 08:41:07;;;;;;;0.30;0.30;;;21.60;99.90;;;;;;4444433;32;20065;-61
2022/07/24 08:43:32;;;;;;;0.15;0.15;;;21.50;99.50;;;;;;4443973;32;20077;-61
2022/07/24 08:46:00;;;;;;;0.30;0.30;;;21.50;99.50;;;;;;4434659;32;20073;-62
2022/07/24 08:48:27;;;;;;;1.35;0.30;;;21.60;98.80;;;;;;4429499;32;20096;-61
2022/07/24 08:50:53;;;;;;;0.20;0.20;;;21.70;99.10;;;;;;4424159;32;20056;-61
2022/07/24 08:53:21;;;;;;;0.20;0.20;;;21.80;98.30;;;;;;4420471;32;20081;-61
2022/07/24 08:55:46;;;;;;;2.10;0.85;;;21.70;98.40;;;;;;4436391;32;20069;-62
2022/07/24 08:58:12;;;;;;;0.20;0.20;;;21.80;99.00;;;;;;4444500;32;20081;-62
2022/07/24 09:00:37;;;;;;;0.30;0.30;;;22.00;98.60;;;;;;4444017;32;20085;-62
2022/07/24 09:03:03;;;;;;;0.30;0.30;;;22.10;97.30;;;;;;4445370;32;20085;-62
2022/07/24 09:05:31;;;;;;;0.20;0.20;;;22.10;97.30;;;;;;4445099;32;20462;-60
2022/07/24 09:08:14;;;;;;;0.20;0.20;;;22.10;97.00;;;;;;4443630;32;20060;-62
2022/07/24 09:10:40;;;;;;;0.20;0.20;;;22.00;97.60;;;;;;4443072;32;20504;-62
2022/07/24 09:13:15;;;;;;;0.30;0.30;;;22.00;97.50;;;;;;4443984;32;20145;-63
2022/07/24 09:15:46;;;;;;;0.30;0.30;;;21.90;97.10;;;;;;4444124;32;20464;-62
2022/07/24 09:18:26;;;;;;;0.20;0.20;;;22.10;96.80;;;;;;4444688;32;20077;-63
2022/07/24 09:20:51;;;;;;;0.30;0.30;;;22.30;97.00;;;;;;4439407;32;20463;-62
2022/07/24 09:23:19;;;;;;;0.30;0.30;;;22.60;96.80;;;;;;4421767;32;20065;-62
2022/07/24 09:25:51;;;;;;;0.10;0.10;;;22.70;95.80;;;;;;4435226;32;20061;-63
2022/07/24 09:28:16;;;;;;;0.35;0.35;;;22.80;95.90;;;;;;4442655;32;20092;-63
2022/07/24 09:30:43;;;;;;;25.08;0.30;;;22.90;95.30;;;;;;4443653;32;20123;-63
2022/07/24 09:33:14;;;;;;;0.15;0.15;;;23.10;95.10;;;;;;4443466;32;20073;-63
2022/07/24 09:35:47;;;;;;;0.25;0.25;;;23.30;95.40;;;;;;4444600;32;20065;-63
2022/07/24 09:38:16;;;;;;;0.17;0.17;;;23.30;93.60;;;;;;4442892;32;20076;-63
2022/07/24 09:40:44;;;;;;;0.10;0.10;;;23.40;93.70;;;;;;4443888;32;20072;-63
2022/07/24 09:43:28;;;;;;;0.20;0.20;;;23.40;93.30;;;;;;4443177;32;20120;-63
2022/07/24 09:45:59;;;;;;;0.20;0.20;;;23.60;94.30;;;;;;4444424;32;20477;-63
2022/07/24 09:48:47;;;;;;;0.10;0.10;;;23.80;93.00;;;;;;4444228;32;20077;-63
2022/07/24 09:51:15;;;;;;;0.20;0.20;;;23.80;92.30;;;;;;4435812;32;20122;-63
2022/07/24 09:53:41;;;;;;;0.20;0.20;;;23.90;92.30;;;;;;4420510;32;20520;-62
2022/07/24 09:56:09;;;;;;;0.15;0.15;;;23.90;92.80;;;;;;4441897;32;20132;-63
2022/07/24 09:58:37;;;;;;;0.20;0.20;;;24.10;92.50;;;;;;4446217;32;20074;-63
2022/07/24 10:01:05;;;;;;;0.20;0.20;;;24.30;92.40;;;;;;4446281;32;20072;-63
2022/07/24 10:03:33;;;;;;;0.30;0.25;;;24.60;92.10;;;;;;4446652;32;20056;-63
2022/07/24 10:06:03;;;;;;;0.20;0.20;;;24.40;92.40;;;;;;4445643;32;20077;-63
2022/07/24 10:08:30;;;;;;;0.25;0.25;;;24.60;91.90;;;;;;4445826;32;20486;-63
2022/07/24 10:10:56;;;;;;;1.15;0.30;;;24.80;91.40;;;;;;4446054;32;20077;-63
2022/07/24 10:13:24;;;;;;;0.10;0.10;;;24.90;91.20;;;;;;4445975;32;20081;-63
2022/07/24 10:15:54;;;;;;;0.20;0.20;;;25.20;90.70;;;;;;4445085;32;20077;-63
2022/07/24 10:18:24;;;;;;;0.13;0.13;;;25.40;91.00;;;;;;4446351;32;20073;-63
2022/07/24 10:20:59;;;;;;;0.10;0.10;;;25.60;89.70;;;;;;4443605;32;20061;-63
2022/07/24 10:23:28;;;;;;;0.17;0.17;;;25.40;90.10;;;;;;4409951;32;20152;-63
2022/07/24 10:25:56;;;;;;;0.25;0.25;;;25.30;90.00;;;;;;4423685;32;20482;-63
2022/07/24 10:28:41;;;;;;;0.10;0.10;;;25.30;89.80;;;;;;4431481;32;20081;-63
2022/07/24 10:31:10;;;;;;;0.82;0.20;;;25.30;89.80;;;;;;4431805;32;20092;-63
2022/07/24 10:33:38;;;;;;;0.10;0.10;;;25.60;89.50;;;;;;4430344;32;20072;-63
2022/07/24 10:36:12;;;;;;;0.10;0.10;;;25.60;88.10;;;;;;4429689;32;20069;-63
2022/07/24 10:38:41;;;;;;;0.13;0.13;;;25.90;89.30;;;;;;4431311;32;20081;-63
2022/07/24 10:41:14;;;;;;;0.10;0.10;;;26.00;86.00;;;;;;4431264;32;20061;-61
2022/07/24 10:43:40;;;;;;;0.25;0.10;;;25.90;84.70;;;;;;4431587;32;20090;-63
2022/07/24 10:46:08;;;;;;;0.30;0.30;;;26.20;87.30;;;;;;4434522;32;20106;-63
2022/07/24 10:48:36;;;;;;;0.80;0.43;;;26.50;88.20;;;;;;4431121;32;20065;-63
2022/07/24 10:51:06;;;;;;;0.10;0.10;;;26.80;85.60;;;;;;4425348;32;20061;-62
2022/07/24 10:53:45;;;;;;;0.00;0.00;;;26.70;85.10;;;;;;4423364;32;20069;-62
2022/07/24 10:56:36;;;;;;;0.10;0.10;;;26.50;84.80;;;;;;4442722;32;20076;-62
2022/07/24 10:59:07;;;;;;;0.10;0.10;;;26.50;85.30;;;;;;4445635;32;20537;-62
2022/07/24 11:01:44;;;;;;;0.55;0.25;;;27.00;85.30;;;;;;4446343;32;20068;-63
2022/07/24 11:04:27;;;;;;;0.10;0.00;;;27.10;84.20;;;;;;4445950;32;20061;-63
2022/07/24 11:06:56;;;;;;;0.20;0.20;;;27.50;80.90;;;;;;4444843;32;20076;-63
2022/07/24 11:09:24;;;;;;;0.00;0.00;;;27.50;80.90;;;;;;4446304;32;20472;-63
2022/07/24 11:11:55;;;;;;;0.20;0.20;;;27.80;80.00;;;;;;4444441;32;20069;-64
2022/07/24 11:14:25;;;;;;;0.00;0.00;;;28.10;79.70;;;;;;4445325;32;20088;-64
2022/07/24 11:16:51;;;;;;;0.05;0.05;;;27.90;80.50;;;;;;4446531;32;20085;-62
2022/07/24 11:19:20;;;;;;;0.10;0.10;;;28.20;78.80;;;;;;4445506;32;20529;-63
2022/07/24 11:21:47;;;;;;;0.25;0.05;;;28.10;78.60;;;;;;4428185;32;20520;-63
2022/07/24 11:24:16;;;;;;;0.00;0.00;;;28.40;77.70;;;;;;4410052;32;20109;-64
2022/07/24 11:26:52;;;;;;;0.00;0.00;;;28.80;78.50;;;;;;4429609;32;20061;-63
2022/07/24 11:29:23;;;;;;;0.10;0.10;;;29.10;77.00;;;;;;4430393;32;20065;-63
2022/07/24 11:31:53;;;;;;;0.10;0.10;;;29.20;75.80;;;;;;4428648;32;20069;-63
2022/07/24 11:34:18;;;;;;;0.15;0.15;;;28.90;73.90;;;;;;4429143;32;20065;-63
2022/07/24 11:36:47;;;;;;;0.30;0.30;;;29.20;74.00;;;;;;4430292;32;20081;-63
2022/07/24 11:39:14;;;;;;;0.10;0.10;;;29.40;73.00;;;;;;4444287;32;20065;-63
2022/07/24 11:41:52;;;;;;;0.00;0.00;;;29.40;74.50;;;;;;4442204;32;20065;-63
2022/07/24 11:44:36;;;;;;;0.10;0.10;;;29.60;73.50;;;;;;4446077;32;20134;-63
2022/07/24 11:47:13;;;;;;;0.00;0.00;;;29.70;73.00;;;;;;4430214;32;20073;-63
2022/07/24 11:49:45;;;;;;;0.00;0.00;;;29.70;72.80;;;;;;4429707;32;20081;-63
2022/07/24 11:52:34;;;;;;;0.00;0.00;;;29.80;72.20;;;;;;4411865;32;20077;-63
2022/07/24 11:55:04;;;;;;;0.00;0.00;;;30.00;73.30;;;;;;4415595;32;20154;-63
2022/07/24 11:57:32;;;;;;;0.10;0.10;;;29.90;71.70;;;;;;4429410;32;20489;-63
2022/07/24 11:59:58;;;;;;;0.10;0.10;;;29.90;70.90;;;;;;4430841;32;20077;-64
2022/07/24 12:02:24;;;;;;;0.00;0.00;;;30.30;71.20;;;;;;4429309;32;20069;-63
2022/07/24 12:04:50;;;;;;;0.10;0.10;;;30.60;69.20;;;;;;4429258;32;20061;-64
2022/07/24 12:07:19;;;;;;;0.95;0.50;;;30.60;70.40;;;;;;4430061;32;20508;-63
2022/07/24 12:10:02;;;;;;;0.20;0.20;;;30.60;69.80;;;;;;4438857;32;20065;-64
2022/07/24 12:12:38;;;;;;;0.20;0.20;;;31.30;67.50;;;;;;4445944;32;20110;-64
2022/07/24 12:15:08;;;;;;;1.10;0.43;;;32.00;65.40;;;;;;4444170;32;20061;-64
2022/07/24 12:17:51;;;;;;;0.20;0.15;;;32.50;65.30;;;;;;4430990;32;20432;-64
2022/07/24 12:20:21;;;;;;;0.10;0.10;;;32.30;63.60;;;;;;4443314;32;20198;-62
2022/07/24 12:22:47;;;;;;;0.10;0.10;;;32.20;65.50;;;;;;4421685;32;20061;-62
2022/07/24 12:25:14;;;;;;;0.10;0.10;;;32.80;64.60;;;;;;4432308;32;20162;-63
2022/07/24 12:27:42;;;;;;;0.00;0.00;;;32.60;64.50;;;;;;4444882;32;20073;-64
2022/07/24 12:30:27;;;;;;;0.10;0.10;;;32.60;63.00;;;;;;4431281;32;20072;-64
2022/07/24 12:33:03;;;;;;;0.10;0.10;;;32.70;62.10;;;;;;4430821;32;20086;-64
2022/07/24 12:35:31;;;;;;;0.30;0.28;;;33.30;61.90;;;;;;4444583;32;20119;-64
2022/07/24 12:37:58;;;;;;;1.45;0.30;;;33.60;60.30;;;;;;4445089;32;20065;-64
2022/07/24 12:40:27;;;;;;;0.20;0.20;;;33.70;59.40;;;;;;4442822;32;20785;-64
2022/07/24 12:42:59;;;;;;;0.63;0.40;;;33.90;57.70;;;;;;4444298;32;20068;-62
2022/07/24 12:45:24;;;;;;;0.10;0.10;;;33.90;56.60;;;;;;4437095;32;20133;-61